createdAt,value
2022-10-05T00:00:47.269Z,3.60
2022-10-05T00:03:14.502Z,4.07
2022-10-05T00:05:42.142Z,3.92
2022-10-05T00:08:15.802Z,3.45
2022-10-05T00:10:43.174Z,2.17
2022-10-05T00:13:17.534Z,4.38
2022-10-05T00:15:45.084Z,3.60
2022-10-05T00:18:16.243Z,3.40
2022-10-05T00:20:44.373Z,3.63
2022-10-05T00:23:19.329Z,3.83
2022-10-05T00:25:47.147Z,3.85
2022-10-05T00:28:26.572Z,3.95
2022-10-05T00:31:01.435Z,3.72
2022-10-05T00:33:28.812Z,3.75
2022-10-05T00:35:56.112Z,3.22
2022-10-05T00:38:23.571Z,3.90
2022-10-05T00:41:10.707Z,3.85
2022-10-05T00:43:55.327Z,3.72
2022-10-05T00:46:27.477Z,4.30
2022-10-05T00:49:21.956Z,4.15
2022-10-05T00:52:20.226Z,2.90
2022-10-05T00:54:59.932Z,4.55
2022-10-05T00:57:48.620Z,4.20
2022-10-05T01:00:20.095Z,4.68
2022-10-05T01:03:07.154Z,3.65
2022-10-05T01:05:35.263Z,4.30
2022-10-05T01:08:02.453Z,4.30
2022-10-05T01:10:38.090Z,4.28
2022-10-05T01:13:11.163Z,4.35
2022-10-05T01:15:59.359Z,4.10
2022-10-05T01:18:34.341Z,3.75
2022-10-05T01:21:23.817Z,3.78
2022-10-05T01:24:11.866Z,4.00
2022-10-05T01:27:04.733Z,4.05
2022-10-05T01:29:43.838Z,3.90
2022-10-05T01:32:18.810Z,4.20
2022-10-05T01:34:45.884Z,3.53
2022-10-05T01:37:22.492Z,3.97
2022-10-05T01:40:12.894Z,4.07
2022-10-05T01:43:03.656Z,3.60
2022-10-05T01:46:10.626Z,3.63
2022-10-05T01:49:17.522Z,4.53
2022-10-05T01:51:54.621Z,3.72
2022-10-05T01:54:37.303Z,4.18
2022-10-05T01:57:08.815Z,3.85
2022-10-05T01:59:50.295Z,3.67
2022-10-05T02:02:22.259Z,4.00
2022-10-05T02:05:06.677Z,4.55
2022-10-05T02:07:40.189Z,4.20
2022-10-05T02:10:18.201Z,4.32
2022-10-05T02:12:48.285Z,4.30
2022-10-05T02:15:20.917Z,4.80
2022-10-05T02:17:52.945Z,4.93
2022-10-05T02:20:25.798Z,4.32
2022-10-05T02:22:58.329Z,6.60
2022-10-05T02:25:33.747Z,5.68
2022-10-05T02:28:07.754Z,4.82
2022-10-05T02:30:43.278Z,4.80
2022-10-05T02:33:19.870Z,4.38
2022-10-05T02:35:47.324Z,3.55
2022-10-05T02:38:27.118Z,4.10
2022-10-05T02:41:14.277Z,3.90
2022-10-05T02:43:43.194Z,3.88
2022-10-05T02:46:35.353Z,3.90
2022-10-05T02:49:31.055Z,4.80
2022-10-05T02:52:06.763Z,4.00
2022-10-05T02:55:01.710Z,4.15
2022-10-05T02:57:38.757Z,2.85
2022-10-05T03:00:15.257Z,3.97
2022-10-05T03:02:52.026Z,3.95
2022-10-05T03:05:22.689Z,4.38
2022-10-05T03:07:54.118Z,4.18
2022-10-05T03:11:01.058Z,4.05
2022-10-05T03:13:38.257Z,3.92
2022-10-05T03:16:05.417Z,3.63
2022-10-05T03:18:59.313Z,4.00
2022-10-05T03:22:01.909Z,3.80
2022-10-05T03:24:35.498Z,4.22
2022-10-05T03:27:25.275Z,3.75
2022-10-05T03:30:12.647Z,3.97
2022-10-05T03:33:03.161Z,3.83
2022-10-05T03:35:53.222Z,3.50
2022-10-05T03:39:00.211Z,4.30
2022-10-05T03:41:50.555Z,3.67
2022-10-05T03:44:31.372Z,4.00
2022-10-05T03:47:01.222Z,3.75
2022-10-05T03:49:29.517Z,3.65
2022-10-05T03:52:06.079Z,3.88
2022-10-05T03:54:39.533Z,3.50
2022-10-05T03:57:13.537Z,3.30
2022-10-05T03:59:56.971Z,4.30
2022-10-05T04:02:26.839Z,4.82
2022-10-05T04:05:03.913Z,4.35
2022-10-05T04:07:36.312Z,4.50
2022-10-05T04:10:10.046Z,5.15
2022-10-05T04:12:42.580Z,5.43
2022-10-05T04:15:19.484Z,4.25
2022-10-05T04:17:52.471Z,4.65
2022-10-05T04:20:21.864Z,4.53
2022-10-05T04:22:54.217Z,4.93
2022-10-05T04:25:31.876Z,4.68
2022-10-05T04:28:29.593Z,4.93
2022-10-05T04:31:02.867Z,4.15
2022-10-05T04:33:31.706Z,4.25
2022-10-05T04:36:18.310Z,5.15
2022-10-05T04:38:46.474Z,5.07
2022-10-05T04:41:37.727Z,5.38
2022-10-05T04:44:13.361Z,4.72
2022-10-05T04:46:42.995Z,5.10
2022-10-05T04:49:29.977Z,5.18
2022-10-05T04:52:17.884Z,5.00
2022-10-05T04:55:13.921Z,5.18
2022-10-05T04:58:20.867Z,5.35
2022-10-05T05:01:11.964Z,4.75
2022-10-05T05:04:12.259Z,5.03
2022-10-05T05:06:42.319Z,5.80
2022-10-05T05:09:38.226Z,6.38
2022-10-05T05:12:12.305Z,5.28
2022-10-05T05:15:04.372Z,5.50
2022-10-05T05:17:32.597Z,5.45
2022-10-05T05:20:15.798Z,6.05
2022-10-05T05:22:47.859Z,6.38
2022-10-05T05:25:21.978Z,6.05
2022-10-05T05:27:56.844Z,7.88
2022-10-05T05:30:53.632Z,8.18
2022-10-05T05:33:23.382Z,7.63
2022-10-05T05:36:23.359Z,7.70
2022-10-05T05:39:04.002Z,6.65
2022-10-05T05:41:39.419Z,6.60
2022-10-05T05:44:48.659Z,5.82
2022-10-05T05:47:38.061Z,5.68
2022-10-05T05:50:07.992Z,9.27
2022-10-05T05:52:46.008Z,11.10
2022-10-05T05:55:29.948Z,9.45
2022-10-05T05:58:11.419Z,5.43
2022-10-05T06:00:48.787Z,5.95
2022-10-05T06:03:37.002Z,5.53
2022-10-05T06:06:10.035Z,4.68
2022-10-05T06:08:42.468Z,5.10
2022-10-05T06:11:35.550Z,4.80
2022-10-05T06:14:12.767Z,5.15
2022-10-05T06:16:55.143Z,4.60
2022-10-05T06:19:24.212Z,4.85
2022-10-05T06:22:07.801Z,4.43
2022-10-05T06:24:40.701Z,4.53
2022-10-05T06:27:34.911Z,4.25
2022-10-05T06:30:06.850Z,3.83
2022-10-05T06:32:37.056Z,4.07
2022-10-05T06:35:07.932Z,3.90
2022-10-05T06:37:38.946Z,3.72
2022-10-05T06:40:14.419Z,3.75
2022-10-05T06:43:01.667Z,4.22
2022-10-05T06:45:53.302Z,3.85
2022-10-05T06:48:31.097Z,3.95
2022-10-05T06:51:31.410Z,4.88
2022-10-05T06:54:44.052Z,4.95
2022-10-05T06:57:39.903Z,4.88
2022-10-05T07:00:28.978Z,3.97
2022-10-05T07:03:21.804Z,4.60
2022-10-05T07:06:05.885Z,4.80
2022-10-05T07:08:52.885Z,4.22
2022-10-05T07:11:58.443Z,4.40
2022-10-05T07:14:46.374Z,3.92
2022-10-05T07:17:42.662Z,3.90
2022-10-05T07:20:33.058Z,3.47
2022-10-05T07:23:10.125Z,3.95
2022-10-05T07:25:50.140Z,3.50
2022-10-05T07:28:38.145Z,3.63
2022-10-05T07:31:10.854Z,3.60
2022-10-05T07:33:39.048Z,4.10
2022-10-05T07:36:32.634Z,3.97
2022-10-05T07:39:11.750Z,4.28
2022-10-05T07:41:47.755Z,3.35
2022-10-05T07:44:36.703Z,4.13
2022-10-05T07:47:33.528Z,3.92
2022-10-05T07:50:08.640Z,3.80
2022-10-05T07:52:38.065Z,3.63
2022-10-05T07:55:20.609Z,3.50
2022-10-05T07:58:16.709Z,3.45
2022-10-05T08:01:24.247Z,4.22
2022-10-05T08:04:03.462Z,3.60
2022-10-05T08:06:42.443Z,3.33
2022-10-05T08:09:29.421Z,3.50
2022-10-05T08:12:01.124Z,3.65
2022-10-05T08:14:52.949Z,3.95
2022-10-05T08:17:30.151Z,3.83
2022-10-05T08:20:09.932Z,3.78
2022-10-05T08:22:46.066Z,3.70
2022-10-05T08:25:26.587Z,4.50
2022-10-05T08:28:10.720Z,3.53
2022-10-05T08:30:54.488Z,3.60
2022-10-05T08:33:23.493Z,4.20
2022-10-05T08:36:05.647Z,4.43
2022-10-05T08:38:33.812Z,4.43
2022-10-05T08:41:00.853Z,5.25
2022-10-05T08:43:35.129Z,4.70
2022-10-05T08:46:27.882Z,4.68
2022-10-05T08:49:22.487Z,4.20
2022-10-05T08:52:00.909Z,4.30
2022-10-05T08:54:30.144Z,4.43
2022-10-05T08:57:12.124Z,4.40
2022-10-05T08:59:56.071Z,4.80
2022-10-05T09:02:23.167Z,4.67
2022-10-05T09:05:13.565Z,4.75
2022-10-05T09:08:20.914Z,4.15
2022-10-05T09:10:58.293Z,4.88
2022-10-05T09:14:05.159Z,4.47
2022-10-05T09:16:50.719Z,4.32
2022-10-05T09:19:37.691Z,4.88
2022-10-05T09:22:30.399Z,4.18
2022-10-05T09:25:03.869Z,4.50
2022-10-05T09:27:37.997Z,4.20
2022-10-05T09:30:13.042Z,4.30
2022-10-05T09:32:41.247Z,4.18
2022-10-05T09:35:26.031Z,4.40
2022-10-05T09:38:16.081Z,3.78
2022-10-05T09:41:04.026Z,4.40
2022-10-05T09:43:40.285Z,4.88
2022-10-05T09:46:28.443Z,4.20
2022-10-05T09:49:35.365Z,4.60
2022-10-05T09:52:31.766Z,4.38
2022-10-05T09:55:25.800Z,4.93
2022-10-05T09:58:30.730Z,4.50
2022-10-05T10:01:08.890Z,4.75
2022-10-05T10:04:07.241Z,4.43
2022-10-05T10:07:05.047Z,4.00
2022-10-05T10:09:53.161Z,5.35
2022-10-05T10:12:47.713Z,4.20
2022-10-05T10:15:54.768Z,5.03
2022-10-05T10:18:39.870Z,4.40
2022-10-05T10:21:35.202Z,4.72
2022-10-05T10:24:21.621Z,4.72
2022-10-05T10:26:57.553Z,5.03
2022-10-05T10:29:46.054Z,4.90
2022-10-05T10:32:21.848Z,4.88
2022-10-05T10:35:09.276Z,5.00
2022-10-05T10:37:58.775Z,4.78
2022-10-05T10:40:49.455Z,4.25
2022-10-05T10:43:22.085Z,5.28
2022-10-05T10:45:53.894Z,4.55
2022-10-05T10:48:40.888Z,4.70
2022-10-05T10:51:29.398Z,4.45
2022-10-05T10:54:20.021Z,4.40
2022-10-05T10:57:04.510Z,4.20
2022-10-05T11:00:15.681Z,4.97
2022-10-05T11:02:47.403Z,4.43
2022-10-05T11:05:29.006Z,4.50
2022-10-05T11:08:31.697Z,3.88
2022-10-05T11:11:22.631Z,3.72
2022-10-05T11:14:02.908Z,3.20
2022-10-05T11:17:09.778Z,3.30
2022-10-05T11:19:40.763Z,2.83
2022-10-05T11:22:31.020Z,2.83
2022-10-05T11:24:58.175Z,2.75
2022-10-05T11:28:01.081Z,2.95
2022-10-05T11:30:51.530Z,2.90
2022-10-05T11:33:58.500Z,2.67
2022-10-05T11:37:01.491Z,3.08
2022-10-05T11:39:52.910Z,2.50
2022-10-05T11:42:31.683Z,2.83
2022-10-05T11:45:22.109Z,3.03
2022-10-05T11:48:07.374Z,2.85
2022-10-05T11:50:40.220Z,2.70
2022-10-05T11:53:22.549Z,3.22
2022-10-05T11:56:09.849Z,3.05
2022-10-05T11:58:54.348Z,3.00
2022-10-05T12:01:28.437Z,2.97
2022-10-05T12:04:14.036Z,3.38
2022-10-05T12:07:01.116Z,3.22
2022-10-05T12:09:30.319Z,3.00
2022-10-05T12:12:27.315Z,3.10
2022-10-05T12:15:06.360Z,3.50
2022-10-05T12:17:43.518Z,3.55
2022-10-05T12:20:34.962Z,3.33
2022-10-05T12:23:11.812Z,3.17
2022-10-05T12:25:48.347Z,3.13
2022-10-05T12:28:22.958Z,3.70
2022-10-05T12:31:07.628Z,3.42
2022-10-05T12:33:39.281Z,3.30
2022-10-05T12:36:15.212Z,3.40
2022-10-05T12:38:51.099Z,3.40
2022-10-05T12:41:22.813Z,3.75
2022-10-05T12:44:07.063Z,3.67
2022-10-05T12:46:42.632Z,3.97
2022-10-05T12:49:25.324Z,3.67
2022-10-05T12:51:58.791Z,4.13
2022-10-05T12:54:49.183Z,3.60
2022-10-05T12:57:32.281Z,4.00
2022-10-05T13:00:11.425Z,4.45
2022-10-05T13:02:51.190Z,4.07
2022-10-05T13:05:28.185Z,4.45
2022-10-05T13:08:17.848Z,4.22
2022-10-05T13:11:05.012Z,4.40
2022-10-05T13:13:41.116Z,4.63
2022-10-05T13:16:16.598Z,3.95
2022-10-05T13:18:49.898Z,4.40
2022-10-05T13:21:21.045Z,4.30
2022-10-05T13:24:09.871Z,3.78
2022-10-05T13:26:43.737Z,4.78
2022-10-05T13:29:24.163Z,4.88
2022-10-05T13:32:00.313Z,4.47
2022-10-05T13:34:37.249Z,4.20
2022-10-05T13:37:28.802Z,4.65
2022-10-05T13:40:01.479Z,4.75
2022-10-05T13:42:34.509Z,4.95
2022-10-05T13:45:04.834Z,3.95
2022-10-05T13:48:03.292Z,3.80
2022-10-05T13:50:34.799Z,3.83
2022-10-05T13:53:30.014Z,3.70
2022-10-05T13:56:21.624Z,3.65
2022-10-05T13:59:12.857Z,4.05
2022-10-05T14:01:52.757Z,4.13
2022-10-05T14:04:24.736Z,4.13
2022-10-05T14:06:53.326Z,4.25
2022-10-05T14:09:20.375Z,3.97
2022-10-05T14:11:51.275Z,3.78
2022-10-05T14:14:43.103Z,3.95
2022-10-05T14:17:17.050Z,4.20
2022-10-05T14:19:47.951Z,3.50
2022-10-05T14:22:22.893Z,4.07
2022-10-05T14:25:09.843Z,4.10
2022-10-05T14:27:49.241Z,4.00
2022-10-05T14:30:16.323Z,4.13
2022-10-05T14:32:51.625Z,4.15
2022-10-05T14:35:22.290Z,4.07
2022-10-05T14:38:00.255Z,4.00
2022-10-05T14:40:29.490Z,4.53
2022-10-05T14:43:00.742Z,3.95
2022-10-05T14:45:30.796Z,3.40
2022-10-05T14:48:01.847Z,4.47
2022-10-05T14:50:31.509Z,3.95
2022-10-05T14:53:17.430Z,3.83
2022-10-05T14:55:50.030Z,3.72
2022-10-05T14:58:55.787Z,3.60
2022-10-05T15:03:59.764Z,4.20
2022-10-05T15:06:39.913Z,3.95
2022-10-05T15:09:33.957Z,3.65
2022-10-05T15:12:04.699Z,4.13
2022-10-05T15:14:43.187Z,4.00
2022-10-05T15:17:21.196Z,3.28
2022-10-05T15:20:24.615Z,3.38
2022-10-05T15:23:03.813Z,3.35
2022-10-05T15:25:55.417Z,3.45
2022-10-05T15:29:03.468Z,3.10
2022-10-05T15:31:48.835Z,3.60
2022-10-05T15:34:29.505Z,3.95
2022-10-05T15:37:23.639Z,3.58
2022-10-05T15:40:02.744Z,3.45
2022-10-05T15:42:38.872Z,3.60
2022-10-05T15:45:35.386Z,3.70
2022-10-05T15:48:08.132Z,3.20
2022-10-05T15:50:46.027Z,3.58
2022-10-05T15:53:52.968Z,3.97
2022-10-05T15:56:34.022Z,4.13
2022-10-05T15:59:16.879Z,3.63
2022-10-05T16:01:53.031Z,3.97
2022-10-05T16:04:30.183Z,3.88
2022-10-05T16:07:20.853Z,4.38
2022-10-05T16:10:05.678Z,4.00
2022-10-05T16:12:38.201Z,4.07
2022-10-05T16:15:27.642Z,4.55
2022-10-05T16:18:10.792Z,4.25
2022-10-05T16:20:51.138Z,3.90
2022-10-05T16:23:19.400Z,4.63
2022-10-05T16:25:59.822Z,4.57
2022-10-05T16:29:06.804Z,4.05
2022-10-05T16:31:44.243Z,3.95
2022-10-05T16:34:29.716Z,5.15
2022-10-05T16:37:09.441Z,5.25
2022-10-05T16:40:01.470Z,4.70
2022-10-05T16:42:49.764Z,4.28
2022-10-05T16:45:45.436Z,4.90
2022-10-05T16:48:18.116Z,5.13
2022-10-05T16:51:01.891Z,5.40
2022-10-05T16:53:35.732Z,5.40
2022-10-05T16:56:08.788Z,6.03
2022-10-05T16:58:43.313Z,6.20
2022-10-05T17:04:33.843Z,5.88
2022-10-05T17:07:35.223Z,6.35
2022-10-05T17:10:22.152Z,6.47
2022-10-05T17:13:16.414Z,6.32
2022-10-05T17:16:22.176Z,6.30
2022-10-05T17:19:19.812Z,6.45
2022-10-05T17:22:00.642Z,6.43
2022-10-05T17:24:36.853Z,6.20
2022-10-05T17:27:25.257Z,6.55
2022-10-05T17:29:55.622Z,6.20
2022-10-05T17:32:23.169Z,6.97
2022-10-05T17:35:18.522Z,5.72
2022-10-05T17:38:17.423Z,6.38
2022-10-05T17:41:08.222Z,6.78
2022-10-05T17:43:35.949Z,6.53
2022-10-05T17:46:06.915Z,6.50
2022-10-05T17:49:02.489Z,6.13
2022-10-05T17:51:49.770Z,6.38
2022-10-05T17:54:41.564Z,6.30
2022-10-05T17:57:08.910Z,6.35
2022-10-05T17:59:49.711Z,7.28
2022-10-05T18:02:26.979Z,6.40
2022-10-05T18:05:15.275Z,6.25
2022-10-05T18:07:48.190Z,7.43
2022-10-05T18:10:28.926Z,8.00
2022-10-05T18:12:59.619Z,7.03
2022-10-05T18:15:29.405Z,6.93
2022-10-05T18:18:35.715Z,7.07
2022-10-05T18:21:11.629Z,6.78
2022-10-05T18:23:42.050Z,7.10
2022-10-05T18:26:45.104Z,6.30
2022-10-05T18:29:38.961Z,6.82
2022-10-05T18:32:27.099Z,7.57
2022-10-05T18:35:19.941Z,7.88
2022-10-05T18:38:07.030Z,8.38
2022-10-05T18:40:57.488Z,8.77
2022-10-05T18:43:51.501Z,8.98
2022-10-05T18:46:49.859Z,8.85
2022-10-05T18:49:52.960Z,8.13
2022-10-05T18:52:46.556Z,8.15
2022-10-05T18:55:20.719Z,7.90
2022-10-05T19:01:03.439Z,8.52
2022-10-05T19:03:57.271Z,8.43
2022-10-05T19:06:32.186Z,7.60
2022-10-05T19:08:59.422Z,7.97
2022-10-05T19:11:28.445Z,8.00
2022-10-05T19:14:20.257Z,9.20
2022-10-05T19:17:19.288Z,7.30
2022-10-05T19:20:07.478Z,7.95
2022-10-05T19:22:54.893Z,8.18
2022-10-05T19:25:32.722Z,8.82
2022-10-05T19:28:21.337Z,8.60
2022-10-05T19:30:49.511Z,7.75
2022-10-05T19:33:32.427Z,7.80
2022-10-05T19:36:26.198Z,7.78
2022-10-05T19:39:19.706Z,7.10
2022-10-05T19:41:52.181Z,7.32
2022-10-05T19:44:45.436Z,7.57
2022-10-05T19:47:36.357Z,7.97
2022-10-05T19:50:27.606Z,8.38
2022-10-05T19:53:08.562Z,7.70
2022-10-05T19:55:41.657Z,7.85
2022-10-05T19:58:28.247Z,8.20
2022-10-05T20:00:59.135Z,8.43
2022-10-05T20:03:32.902Z,8.73
2022-10-05T20:06:01.963Z,8.35
2022-10-05T20:08:39.554Z,9.55
2022-10-05T20:11:09.428Z,10.27
2022-10-05T20:13:37.346Z,10.23
2022-10-05T20:16:37.490Z,9.32
2022-10-05T20:19:52.290Z,10.10
2022-10-05T20:22:34.297Z,10.73
2022-10-05T20:25:03.825Z,8.95
2022-10-05T20:27:47.995Z,10.43
2022-10-05T20:30:29.324Z,9.48
2022-10-05T20:32:59.748Z,9.27
2022-10-05T20:35:35.294Z,9.32
2022-10-05T20:38:10.144Z,9.05
2022-10-05T20:40:39.966Z,8.75
2022-10-05T20:43:09.606Z,8.88
2022-10-05T20:45:44.979Z,8.15
2022-10-05T20:48:17.077Z,7.63
2022-10-05T20:50:50.580Z,8.15
2022-10-05T20:53:24.151Z,8.43
2022-10-05T20:58:27.539Z,8.88
2022-10-05T21:01:16.154Z,10.07
2022-10-05T21:03:43.267Z,9.52
2022-10-05T21:06:11.058Z,10.02
2022-10-05T21:08:44.166Z,10.05
2022-10-05T21:11:12.305Z,10.77
2022-10-05T21:13:47.097Z,9.63
2022-10-05T21:16:18.691Z,9.52
2022-10-05T21:18:48.834Z,9.18
2022-10-05T21:21:18.037Z,8.88
2022-10-05T21:23:48.714Z,8.70
2022-10-05T21:26:16.074Z,9.80
2022-10-05T21:28:46.132Z,10.10
2022-10-05T21:31:13.531Z,9.32
2022-10-05T21:33:40.618Z,9.45
2022-10-05T21:36:08.180Z,8.50
2022-10-05T21:38:35.302Z,7.68
2022-10-05T21:41:03.251Z,8.57
2022-10-05T21:43:30.640Z,9.23
2022-10-05T21:45:58.428Z,10.13
2022-10-05T21:48:27.102Z,9.50
2022-10-05T21:50:54.469Z,10.00
2022-10-05T21:53:26.040Z,8.20
2022-10-05T21:55:53.644Z,8.45
2022-10-05T21:58:22.553Z,8.57
2022-10-05T22:00:49.792Z,7.55
2022-10-05T22:03:16.863Z,6.68
2022-10-05T22:05:44.785Z,8.55
2022-10-05T22:08:33.184Z,9.55
2022-10-05T22:11:01.724Z,9.48
2022-10-05T22:13:43.189Z,9.15
2022-10-05T22:16:10.358Z,8.70
2022-10-05T22:18:37.865Z,9.65
2022-10-05T22:21:07.170Z,8.18
2022-10-05T22:23:35.839Z,9.02
2022-10-05T22:26:04.214Z,8.80
2022-10-05T22:28:33.008Z,8.35
2022-10-05T22:31:04.015Z,8.95
2022-10-05T22:33:31.642Z,8.93
2022-10-05T22:36:00.358Z,9.10
2022-10-05T22:38:30.458Z,8.70
2022-10-05T22:40:57.965Z,8.30
2022-10-05T22:43:27.049Z,8.57
2022-10-05T22:45:55.058Z,9.20
2022-10-05T22:48:22.501Z,11.23
2022-10-05T22:50:49.632Z,13.13
2022-10-05T22:53:17.133Z,14.35
2022-10-05T22:55:44.294Z,12.70
2022-10-05T22:58:11.441Z,12.90
2022-10-05T23:00:57.559Z,12.63
2022-10-05T23:03:25.423Z,15.90
2022-10-05T23:06:03.201Z,17.42
2022-10-05T23:08:32.162Z,19.60
2022-10-05T23:11:03.428Z,21.65
2022-10-05T23:13:31.223Z,20.27
2022-10-05T23:15:58.363Z,19.63
2022-10-05T23:18:26.168Z,18.02
2022-10-05T23:20:54.852Z,19.13
2022-10-05T23:23:23.415Z,16.65
2022-10-05T23:25:50.586Z,16.05
2022-10-05T23:28:17.766Z,15.38
2022-10-05T23:30:45.233Z,14.43
2022-10-05T23:33:12.435Z,13.73
2022-10-05T23:35:39.509Z,11.77
2022-10-05T23:38:06.717Z,11.02
2022-10-05T23:40:34.100Z,10.38
2022-10-05T23:43:01.177Z,9.10
2022-10-05T23:45:28.264Z,8.77
2022-10-05T23:47:55.331Z,8.77
2022-10-05T23:50:25.028Z,8.07
2022-10-05T23:52:52.111Z,7.90
2022-10-05T23:55:19.252Z,7.72
2022-10-05T23:57:46.395Z,7.35
